Terminal Aerodrome Forecast
Issued by NWS Northern Indiana

Home | Current Version | Previous Version | Text Only | Print | Product List | Glossary Off
Versions: 1 2 3 4 5 6 7 8 9 10 11 12 13 14 15 16 17 18 19 20 21 22 23

000
FTUS43 KIWX 230540 CCA
TAFFWA
TAF COR
KFWA 230540Z 2306/2406 27004KT P6SM FEW060
     FM231400 30011KT P6SM SCT045
     FM232300 31005KT P6SM SKC=

USA.gov is the U.S. government's official web portal to all federal, state and local government web resources and services.